createdAt,value
2023-05-03T00:00:39.468Z,3.50
2023-05-03T00:01:41.850Z,2.80
2023-05-03T00:02:44.412Z,3.50
2023-05-03T00:03:47.041Z,4.60
2023-05-03T00:04:54.286Z,3.70
2023-05-03T00:05:56.861Z,3.20
2023-05-03T00:06:59.790Z,3.30
2023-05-03T00:08:02.161Z,4.70
2023-05-03T00:09:04.391Z,4.40
2023-05-03T00:10:09.344Z,3.80
2023-05-03T00:11:11.824Z,3.90
2023-05-03T00:12:14.061Z,3.90
2023-05-03T00:13:16.430Z,5.10
2023-05-03T00:14:18.808Z,3.80
2023-05-03T00:15:21.019Z,3.90
2023-05-03T00:16:23.231Z,4.20
2023-05-03T00:17:25.646Z,4.40
2023-05-03T00:18:28.124Z,0.20
2023-05-03T00:19:31.830Z,4.30
2023-05-03T00:20:35.064Z,4.50
2023-05-03T00:21:37.519Z,4.40
2023-05-03T00:22:39.877Z,4.80
2023-05-03T00:23:42.097Z,4.20
2023-05-03T00:24:44.460Z,4.10
2023-05-03T00:25:46.805Z,3.40
2023-05-03T00:26:49.215Z,4.80
2023-05-03T00:27:51.441Z,3.90
2023-05-03T00:28:53.786Z,3.50
2023-05-03T00:29:56.203Z,5.10
2023-05-03T00:31:10.463Z,5.00
2023-05-03T00:32:12.911Z,3.10
2023-05-03T00:33:15.529Z,4.00
2023-05-03T00:34:17.875Z,6.00
2023-05-03T00:35:20.182Z,6.20
2023-05-03T00:36:22.980Z,5.40
2023-05-03T00:37:26.335Z,6.60
2023-05-03T00:38:29.158Z,6.20
2023-05-03T00:39:31.683Z,6.30
2023-05-03T00:40:33.964Z,6.90
2023-05-03T00:41:36.775Z,6.00
2023-05-03T00:42:39.086Z,5.50
2023-05-03T00:43:41.187Z,6.10
2023-05-03T00:44:44.520Z,6.60
2023-05-03T00:45:47.233Z,5.00
2023-05-03T00:46:50.444Z,4.30
2023-05-03T00:47:52.888Z,4.60
2023-05-03T00:48:55.603Z,5.00
2023-05-03T00:49:59.812Z,5.40
2023-05-03T00:51:04.777Z,4.00
2023-05-03T00:52:09.195Z,4.70
2023-05-03T00:53:11.637Z,4.40
2023-05-03T00:54:15.059Z,3.82
2023-05-03T00:55:17.455Z,4.18
2023-05-03T00:56:20.096Z,3.40
2023-05-03T00:57:23.519Z,4.30
2023-05-03T00:58:25.876Z,4.50
2023-05-03T00:59:29.039Z,3.50
2023-05-03T01:00:33.109Z,4.00
2023-05-03T01:01:35.578Z,4.10
2023-05-03T01:02:37.975Z,4.20
2023-05-03T01:03:40.618Z,3.10
2023-05-03T01:04:45.133Z,4.60
2023-05-03T01:06:09.710Z,4.30
2023-05-03T01:07:34.043Z,3.80
2023-05-03T01:08:39.965Z,3.80
2023-05-03T01:09:54.321Z,4.00
2023-05-03T01:12:43.913Z,5.00
2023-05-03T01:13:49.834Z,3.80
2023-05-03T01:15:17.297Z,3.20
2023-05-03T01:16:38.994Z,2.90
2023-05-03T01:18:03.537Z,3.10
2023-05-03T01:20:22.901Z,3.50
2023-05-03T01:21:25.364Z,3.40
2023-05-03T01:22:49.261Z,2.90
2023-05-03T01:24:04.205Z,3.50
2023-05-03T01:25:08.750Z,3.10
2023-05-03T01:26:27.543Z,4.30
2023-05-03T01:27:30.480Z,3.60
2023-05-03T01:28:32.832Z,4.45
2023-05-03T01:29:35.150Z,4.50
2023-05-03T01:30:39.493Z,4.30
2023-05-03T01:34:14.087Z,6.20
2023-05-03T01:35:37.244Z,5.00
2023-05-03T01:36:42.817Z,4.40
2023-05-03T01:37:45.794Z,4.20
2023-05-03T01:38:49.426Z,4.73
2023-05-03T01:40:03.571Z,5.10
2023-05-03T01:41:11.168Z,4.50
2023-05-03T01:42:15.277Z,4.00
2023-05-03T01:43:19.207Z,4.30
2023-05-03T01:44:22.935Z,4.70
2023-05-03T01:45:26.410Z,4.80
2023-05-03T01:46:30.528Z,4.50
2023-05-03T01:47:33.077Z,4.50
2023-05-03T01:48:36.122Z,6.20
2023-05-03T01:49:38.473Z,6.00
2023-05-03T01:50:40.948Z,5.70
2023-05-03T01:51:43.267Z,5.80
2023-05-03T01:52:46.734Z,5.50
2023-05-03T01:53:50.857Z,6.40
2023-05-03T01:54:53.187Z,5.10
2023-05-03T01:55:56.121Z,6.20
2023-05-03T01:56:58.593Z,2.80
2023-05-03T01:58:01.198Z,5.30
2023-05-03T01:59:04.291Z,5.10
2023-05-03T02:00:07.713Z,5.20
2023-05-03T02:01:11.923Z,5.90
2023-05-03T02:02:14.619Z,5.80
2023-05-03T02:03:16.932Z,5.40
2023-05-03T02:04:21.089Z,6.50
2023-05-03T02:05:23.593Z,4.00
2023-05-03T02:06:26.587Z,5.40
2023-05-03T02:07:28.961Z,5.20
2023-05-03T02:08:31.671Z,5.80
2023-05-03T02:09:34.963Z,4.90
2023-05-03T02:10:37.387Z,5.90
2023-05-03T02:11:39.741Z,5.30
2023-05-03T02:12:42.188Z,4.70
2023-05-03T02:13:45.428Z,4.50
2023-05-03T02:14:49.555Z,5.00
2023-05-03T02:15:51.769Z,3.60
2023-05-03T02:16:54.239Z,4.00
2023-05-03T02:17:56.642Z,4.60
2023-05-03T02:18:59.919Z,4.10
2023-05-03T02:20:02.854Z,5.10
2023-05-03T02:21:05.517Z,5.00
2023-05-03T02:22:07.884Z,3.90
2023-05-03T02:23:10.149Z,4.90
2023-05-03T02:24:12.479Z,5.00
2023-05-03T02:25:14.841Z,4.50
2023-05-03T02:26:17.323Z,4.80
2023-05-03T02:27:19.718Z,3.80
2023-05-03T02:28:22.029Z,3.80
2023-05-03T02:29:24.346Z,4.80
2023-05-03T02:30:26.746Z,3.10
2023-05-03T02:31:29.202Z,3.40
2023-05-03T02:32:32.035Z,3.55
2023-05-03T02:33:34.553Z,4.00
2023-05-03T02:34:36.841Z,3.70
2023-05-03T02:35:39.161Z,3.70
2023-05-03T02:36:41.620Z,3.70
2023-05-03T02:37:43.991Z,3.30
2023-05-03T02:38:46.818Z,1.50
2023-05-03T02:39:49.129Z,3.00
2023-05-03T02:40:51.625Z,3.60
2023-05-03T02:41:53.926Z,2.80
2023-05-03T02:42:56.368Z,3.70
2023-05-03T02:44:00.328Z,3.90
2023-05-03T02:45:02.789Z,4.30
2023-05-03T02:46:06.340Z,4.64
2023-05-03T02:47:09.766Z,4.50
2023-05-03T02:48:13.111Z,4.20
2023-05-03T02:49:16.086Z,4.64
2023-05-03T02:50:19.477Z,5.40
2023-05-03T02:51:22.317Z,4.60
2023-05-03T02:52:24.710Z,5.40
2023-05-03T02:53:27.066Z,4.50
2023-05-03T02:54:30.774Z,4.50
2023-05-03T02:55:34.201Z,5.00
2023-05-03T02:56:36.890Z,5.82
2023-05-03T02:57:40.306Z,5.10
2023-05-03T02:58:43.411Z,5.70
2023-05-03T02:59:45.797Z,5.50
2023-05-03T03:00:48.004Z,6.70
2023-05-03T03:01:50.656Z,5.40
2023-05-03T03:02:52.973Z,5.20
2023-05-03T03:03:56.112Z,5.82
2023-05-03T03:04:58.366Z,5.70
2023-05-03T03:06:00.478Z,6.50
2023-05-03T03:07:03.636Z,5.27
2023-05-03T03:08:06.444Z,5.90
2023-05-03T03:09:08.939Z,5.00
2023-05-03T03:10:12.253Z,4.82
2023-05-03T03:11:14.648Z,5.73
2023-05-03T03:12:17.049Z,4.50
2023-05-03T03:13:19.492Z,3.60
2023-05-03T03:14:21.840Z,5.00
2023-05-03T03:15:24.194Z,4.20
2023-05-03T03:16:26.735Z,4.00
2023-05-03T03:17:29.360Z,4.10
2023-05-03T03:18:31.705Z,4.00
2023-05-03T03:19:34.061Z,3.10
2023-05-03T03:20:37.238Z,3.70
2023-05-03T03:21:39.770Z,2.70
2023-05-03T03:22:42.054Z,3.70
2023-05-03T03:23:44.344Z,3.80
2023-05-03T03:24:46.694Z,3.00
2023-05-03T03:25:49.393Z,3.40
2023-05-03T03:26:51.760Z,2.90
2023-05-03T03:27:54.152Z,2.60
2023-05-03T03:28:56.389Z,4.30
2023-05-03T03:29:59.241Z,3.00
2023-05-03T03:31:01.690Z,2.00
2023-05-03T03:32:04.604Z,3.00
2023-05-03T03:33:07.868Z,3.10
2023-05-03T03:34:12.725Z,4.50
2023-05-03T03:35:17.019Z,4.00
2023-05-03T03:36:19.752Z,4.30
2023-05-03T03:37:22.765Z,3.20
2023-05-03T03:38:26.228Z,3.45
2023-05-03T03:39:30.328Z,1.90
2023-05-03T03:40:32.881Z,3.10
2023-05-03T03:41:35.767Z,3.36
2023-05-03T03:42:39.472Z,3.55
2023-05-03T03:43:42.524Z,3.00
2023-05-03T03:44:46.669Z,3.40
2023-05-03T03:45:49.206Z,3.00
2023-05-03T03:46:51.510Z,3.40
2023-05-03T03:47:54.573Z,3.60
2023-05-03T03:48:56.959Z,3.20
2023-05-03T03:50:01.591Z,0.00
2023-05-03T03:51:04.682Z,3.80
2023-05-03T03:52:09.339Z,3.40
2023-05-03T03:53:11.830Z,4.18
2023-05-03T03:54:14.359Z,3.10
2023-05-03T03:55:18.183Z,2.40
2023-05-03T03:56:21.569Z,3.90
2023-05-03T03:57:24.593Z,4.27
2023-05-03T03:58:28.421Z,3.40
2023-05-03T03:59:31.595Z,3.80
2023-05-03T04:00:34.977Z,2.70
2023-05-03T04:01:39.381Z,3.40
2023-05-03T04:02:42.101Z,4.60
2023-05-03T04:03:46.663Z,3.50
2023-05-03T04:04:49.485Z,3.09
2023-05-03T04:05:52.134Z,4.00
2023-05-03T04:06:56.311Z,3.00
2023-05-03T04:08:00.153Z,3.80
2023-05-03T04:09:04.283Z,3.80
2023-05-03T04:10:09.424Z,3.70
2023-05-03T04:11:13.107Z,3.60
2023-05-03T04:12:18.383Z,4.20
2023-05-03T04:13:21.195Z,3.40
2023-05-03T04:14:25.346Z,4.10
2023-05-03T04:15:27.888Z,3.70
2023-05-03T04:16:32.085Z,3.70
2023-05-03T04:17:36.287Z,3.80
2023-05-03T04:18:41.104Z,3.70
2023-05-03T04:19:43.583Z,3.60
2023-05-03T04:20:46.748Z,4.00
2023-05-03T04:21:50.310Z,4.30
2023-05-03T04:22:53.691Z,3.20
2023-05-03T04:23:57.926Z,4.20
2023-05-03T04:25:01.767Z,4.00
2023-05-03T04:26:05.378Z,4.00
2023-05-03T04:27:09.652Z,3.20
2023-05-03T04:28:13.626Z,3.10
2023-05-03T04:30:27.368Z,3.20
2023-05-03T04:31:30.663Z,3.30
2023-05-03T04:32:33.034Z,3.70
2023-05-03T04:33:35.374Z,3.50
2023-05-03T04:34:38.851Z,4.00
2023-05-03T04:35:41.262Z,3.50
2023-05-03T04:36:45.527Z,3.30
2023-05-03T04:37:47.772Z,3.90
2023-05-03T04:38:52.489Z,3.00
2023-05-03T04:39:54.864Z,2.36
2023-05-03T04:40:57.257Z,3.10
2023-05-03T04:42:00.558Z,3.00
2023-05-03T04:43:02.837Z,2.27
2023-05-03T04:44:07.028Z,3.40
2023-05-03T04:45:10.229Z,4.10
2023-05-03T04:46:12.927Z,3.70
2023-05-03T04:47:15.295Z,4.40
2023-05-03T04:48:18.002Z,3.60
2023-05-03T04:49:20.407Z,3.70
2023-05-03T04:50:22.910Z,3.20
2023-05-03T04:51:25.884Z,2.70
2023-05-03T04:52:28.284Z,3.00
2023-05-03T04:53:30.568Z,4.30
2023-05-03T04:54:37.764Z,3.60
2023-05-03T04:55:40.026Z,2.90
2023-05-03T04:56:42.449Z,3.00
2023-05-03T04:57:46.586Z,3.20
2023-05-03T04:58:49.527Z,3.40
2023-05-03T04:59:52.150Z,2.27
2023-05-03T05:00:54.572Z,3.00
2023-05-03T05:01:58.737Z,3.40
2023-05-03T05:03:01.788Z,2.00
2023-05-03T05:04:05.780Z,3.50
2023-05-03T05:05:10.765Z,2.70
2023-05-03T05:06:14.438Z,2.80
2023-05-03T05:07:16.869Z,3.90
2023-05-03T05:08:19.616Z,2.40
2023-05-03T05:09:26.221Z,2.90
2023-05-03T05:10:31.404Z,2.50
2023-05-03T05:11:33.961Z,3.50
2023-05-03T05:12:36.371Z,2.50
2023-05-03T05:13:39.389Z,3.80
2023-05-03T05:14:42.219Z,3.00
2023-05-03T05:15:45.234Z,2.90
2023-05-03T05:16:48.765Z,3.18
2023-05-03T05:17:52.425Z,2.73
2023-05-03T05:18:55.302Z,2.30
2023-05-03T05:19:59.435Z,2.40
2023-05-03T05:21:03.953Z,3.10
2023-05-03T05:22:07.722Z,3.00
2023-05-03T05:23:20.973Z,2.80
2023-05-03T05:24:23.349Z,3.50
2023-05-03T05:25:26.094Z,4.10
2023-05-03T05:26:28.680Z,3.00
2023-05-03T05:27:31.181Z,3.60
2023-05-03T05:28:34.172Z,3.27
2023-05-03T05:29:36.503Z,3.50
2023-05-03T05:30:39.449Z,2.09
2023-05-03T05:31:42.588Z,3.30
2023-05-03T05:32:45.430Z,2.64
2023-05-03T05:33:48.106Z,2.30
2023-05-03T05:34:50.598Z,2.80
2023-05-03T05:35:53.412Z,2.60
2023-05-03T05:36:57.043Z,3.00
2023-05-03T05:37:59.425Z,3.20
2023-05-03T05:39:02.413Z,2.91
2023-05-03T05:40:06.871Z,2.70
2023-05-03T05:41:11.437Z,2.20
2023-05-03T05:42:14.356Z,4.00
2023-05-03T05:43:16.641Z,2.40
2023-05-03T05:44:20.304Z,3.00
2023-05-03T05:45:23.414Z,3.27
2023-05-03T05:46:26.253Z,0.09
2023-05-03T05:47:29.615Z,3.00
2023-05-03T05:48:32.516Z,1.80
2023-05-03T05:49:35.421Z,2.50
2023-05-03T05:50:38.310Z,2.73
2023-05-03T05:51:42.398Z,3.10
2023-05-03T05:52:46.619Z,2.20
2023-05-03T05:53:49.000Z,2.30
2023-05-03T05:54:52.410Z,1.60
2023-05-03T05:55:55.287Z,3.00
2023-05-03T05:56:57.926Z,3.00
2023-05-03T05:58:00.314Z,2.80
2023-05-03T05:59:04.499Z,3.30
2023-05-03T06:00:08.027Z,2.70
2023-05-03T06:01:12.179Z,3.40
2023-05-03T06:02:15.705Z,2.60
2023-05-03T06:03:19.669Z,2.10
2023-05-03T06:04:23.827Z,3.40
2023-05-03T06:05:26.166Z,3.00
2023-05-03T06:06:29.114Z,1.70
2023-05-03T06:07:31.465Z,1.50
2023-05-03T06:08:33.779Z,2.60
2023-05-03T06:09:36.605Z,2.10
2023-05-03T06:10:40.550Z,2.90
2023-05-03T06:11:43.017Z,2.27
2023-05-03T06:12:45.505Z,1.00
2023-05-03T06:13:50.155Z,2.00
2023-05-03T06:15:02.458Z,2.30
2023-05-03T06:15:57.900Z,2.00
2023-05-03T06:17:00.358Z,2.80
2023-05-03T06:18:02.779Z,1.70
2023-05-03T06:19:05.474Z,3.00
2023-05-03T06:20:08.596Z,1.80
2023-05-03T06:21:10.863Z,1.80
2023-05-03T06:22:13.174Z,2.30
2023-05-03T06:23:15.470Z,1.60
2023-05-03T06:24:18.401Z,1.55
2023-05-03T06:25:20.715Z,1.30
2023-05-03T06:26:24.790Z,2.70
2023-05-03T06:27:27.196Z,1.70
2023-05-03T06:28:29.737Z,1.60
2023-05-03T06:29:32.109Z,2.40
2023-05-03T06:30:34.500Z,2.50
2023-05-03T06:31:41.778Z,2.20
2023-05-03T06:32:47.181Z,2.30
2023-05-03T06:33:49.613Z,2.40
2023-05-03T06:34:51.987Z,2.00
2023-05-03T06:35:54.439Z,1.00
2023-05-03T06:36:56.856Z,2.00
2023-05-03T06:37:59.363Z,1.40
2023-05-03T06:39:02.734Z,1.50
2023-05-03T06:40:06.459Z,2.90
2023-05-03T06:41:09.040Z,1.30
2023-05-03T06:42:11.332Z,2.70
2023-05-03T06:43:15.347Z,2.00
2023-05-03T06:44:22.633Z,1.20
2023-05-03T06:45:24.933Z,1.50
2023-05-03T06:46:27.742Z,1.10
2023-05-03T06:47:30.026Z,2.00
2023-05-03T06:48:33.153Z,1.40
2023-05-03T06:49:35.986Z,1.10
2023-05-03T06:50:39.419Z,0.91
2023-05-03T06:51:41.724Z,1.20
2023-05-03T06:52:44.015Z,1.40
2023-05-03T06:53:46.235Z,0.90
2023-05-03T06:54:48.346Z,1.80
2023-05-03T06:55:50.653Z,1.30
2023-05-03T06:56:52.736Z,1.70
2023-05-03T06:57:56.004Z,1.00
2023-05-03T06:58:58.358Z,1.30
2023-05-03T07:00:00.769Z,1.70
2023-05-03T07:01:03.979Z,1.60
2023-05-03T07:02:06.447Z,0.10
2023-05-03T07:03:09.492Z,1.45
2023-05-03T07:04:12.134Z,1.60
2023-05-03T07:05:14.595Z,0.80
2023-05-03T07:06:17.652Z,0.80
2023-05-03T07:07:20.111Z,1.00
2023-05-03T07:08:22.548Z,1.00
2023-05-03T07:09:39.222Z,1.00
2023-05-03T07:10:30.915Z,1.10
2023-05-03T07:11:34.824Z,1.20
2023-05-03T07:12:38.187Z,0.50
2023-05-03T07:13:40.624Z,1.80
2023-05-03T07:14:42.815Z,1.10
2023-05-03T07:15:45.296Z,0.80
2023-05-03T07:16:47.782Z,1.00
2023-05-03T07:17:50.178Z,1.80
2023-05-03T07:18:52.409Z,1.80
2023-05-03T07:19:54.587Z,2.00
2023-05-03T07:20:57.238Z,0.80
2023-05-03T07:21:59.452Z,0.60
2023-05-03T07:23:02.459Z,1.20
2023-05-03T07:24:05.438Z,0.55
2023-05-03T07:25:08.345Z,1.18
2023-05-03T07:26:11.418Z,0.80
2023-05-03T07:27:13.752Z,0.70
2023-05-03T07:28:16.324Z,1.30
2023-05-03T07:29:18.530Z,0.10
2023-05-03T07:30:21.191Z,1.00
2023-05-03T07:31:23.682Z,1.50
2023-05-03T07:32:25.977Z,0.80
2023-05-03T07:33:28.455Z,1.70
2023-05-03T07:34:30.838Z,1.20
2023-05-03T07:35:33.722Z,0.70
2023-05-03T07:36:35.900Z,0.70
2023-05-03T07:37:38.149Z,1.30
2023-05-03T07:38:40.457Z,0.80
2023-05-03T07:39:42.659Z,0.80
2023-05-03T07:40:45.956Z,1.00
2023-05-03T07:41:48.697Z,1.00
2023-05-03T07:42:51.977Z,1.10
2023-05-03T07:43:54.220Z,0.80
2023-05-03T07:44:56.449Z,0.70
2023-05-03T07:45:58.717Z,0.90
2023-05-03T07:47:01.150Z,0.50
2023-05-03T07:48:03.937Z,1.00
2023-05-03T07:49:06.334Z,0.36
2023-05-03T07:50:09.759Z,0.60
2023-05-03T07:51:12.721Z,1.10
2023-05-03T07:52:15.054Z,0.55
2023-05-03T07:53:17.197Z,1.10
2023-05-03T07:54:19.285Z,0.90
2023-05-03T07:55:22.387Z,1.00
2023-05-03T07:56:26.992Z,0.90
2023-05-03T07:57:29.380Z,0.30
2023-05-03T07:58:40.106Z,0.50
2023-05-03T07:59:36.467Z,0.00
2023-05-03T08:00:39.407Z,1.40
2023-05-03T08:01:41.652Z,0.70
2023-05-03T08:02:44.581Z,0.70
2023-05-03T08:03:47.221Z,0.50
2023-05-03T08:04:49.807Z,0.90
2023-05-03T08:05:52.389Z,0.90
2023-05-03T08:06:54.801Z,1.00
2023-05-03T08:07:57.632Z,0.80
2023-05-03T08:08:59.878Z,1.10
2023-05-03T08:10:02.603Z,0.50
2023-05-03T08:11:05.138Z,0.45
2023-05-03T08:12:07.416Z,0.80
2023-05-03T08:13:10.158Z,0.70
2023-05-03T08:14:12.499Z,0.80
2023-05-03T08:15:15.122Z,0.50
2023-05-03T08:16:17.605Z,0.09
2023-05-03T08:17:20.339Z,0.50
2023-05-03T08:18:23.790Z,0.40
2023-05-03T08:19:26.358Z,0.40
2023-05-03T08:20:28.661Z,0.60
2023-05-03T08:21:30.845Z,1.00
2023-05-03T08:22:33.092Z,0.50
2023-05-03T08:23:35.854Z,0.70
2023-05-03T08:24:39.005Z,1.10
2023-05-03T08:25:41.365Z,0.00
2023-05-03T08:26:43.775Z,0.30
2023-05-03T08:27:46.590Z,0.70
2023-05-03T08:28:48.850Z,1.40
2023-05-03T08:29:51.088Z,0.80
2023-05-03T08:30:53.511Z,1.00
2023-05-03T08:31:55.954Z,0.70
2023-05-03T08:32:58.446Z,1.50
2023-05-03T08:34:00.757Z,0.90
2023-05-03T08:35:03.059Z,0.70
2023-05-03T08:36:05.792Z,0.50
2023-05-03T08:37:07.995Z,0.30
2023-05-03T08:38:10.521Z,0.00
2023-05-03T08:39:12.868Z,0.20
2023-05-03T08:40:16.604Z,0.91
2023-05-03T08:41:30.200Z,0.90
2023-05-03T08:42:32.532Z,0.90
2023-05-03T08:43:38.004Z,0.00
2023-05-03T08:45:54.965Z,0.60
2023-05-03T08:46:59.513Z,0.80
2023-05-03T08:48:01.946Z,0.00
2023-05-03T08:49:05.531Z,0.70
2023-05-03T08:50:09.337Z,0.60
2023-05-03T08:51:13.826Z,0.80
2023-05-03T08:52:16.779Z,1.00
2023-05-03T08:53:19.426Z,1.20
2023-05-03T08:54:21.683Z,0.70
2023-05-03T08:55:23.768Z,0.70
2023-05-03T08:56:34.196Z,1.60
2023-05-03T08:57:36.859Z,0.70
2023-05-03T08:58:39.171Z,0.70
2023-05-03T09:01:04.200Z,17.10
2023-05-03T09:02:09.192Z,13.70
2023-05-03T09:03:12.340Z,2.20
2023-05-03T09:04:14.950Z,2.40
2023-05-03T09:05:21.128Z,8.30
2023-05-03T09:06:24.518Z,6.30
2023-05-03T09:07:26.955Z,2.50
2023-05-03T09:08:30.155Z,1.10
2023-05-03T09:09:32.412Z,1.00
2023-05-03T09:11:47.053Z,1.00
2023-05-03T09:12:51.172Z,0.70
2023-05-03T09:13:54.522Z,0.70
2023-05-03T09:14:57.866Z,0.80
2023-05-03T09:16:00.079Z,1.20
2023-05-03T09:17:14.372Z,0.30
2023-05-03T09:18:19.901Z,0.90
2023-05-03T09:19:22.218Z,0.50
2023-05-03T09:20:34.974Z,0.70
2023-05-03T09:21:37.882Z,1.80
2023-05-03T09:22:44.223Z,1.27
2023-05-03T09:23:46.599Z,0.70
2023-05-03T09:24:56.664Z,1.80
2023-05-03T09:25:59.494Z,1.00
2023-05-03T09:27:03.729Z,1.36
2023-05-03T09:28:05.975Z,1.00
2023-05-03T09:29:09.024Z,1.40
2023-05-03T09:30:16.978Z,1.20
2023-05-03T09:31:19.237Z,2.00
2023-05-03T09:32:21.919Z,1.00
2023-05-03T09:33:29.329Z,1.70
2023-05-03T09:34:32.494Z,1.20
2023-05-03T09:35:34.830Z,1.50
2023-05-03T09:36:47.507Z,1.30
2023-05-03T09:37:49.743Z,2.00
2023-05-03T09:38:52.568Z,2.00
2023-05-03T09:39:58.548Z,1.82
2023-05-03T09:41:00.929Z,1.50
2023-05-03T09:43:28.163Z,1.50
2023-05-03T09:44:40.934Z,1.10
2023-05-03T09:45:43.279Z,1.40
2023-05-03T09:47:05.513Z,0.80
2023-05-03T09:48:07.783Z,0.20
2023-05-03T09:49:10.629Z,1.30
2023-05-03T09:50:13.269Z,1.00
2023-05-03T09:51:16.189Z,1.10
2023-05-03T09:52:21.666Z,1.70
2023-05-03T09:53:26.474Z,1.10
2023-05-03T09:54:29.818Z,1.30
2023-05-03T09:55:40.117Z,1.10
2023-05-03T09:56:44.293Z,1.30
2023-05-03T09:57:47.602Z,0.00
2023-05-03T09:58:49.918Z,1.60
2023-05-03T09:59:52.763Z,1.60
2023-05-03T10:00:56.239Z,1.82
2023-05-03T10:02:00.769Z,1.90
2023-05-03T10:04:18.167Z,1.50
2023-05-03T10:05:22.296Z,1.90
2023-05-03T10:06:37.474Z,2.50
2023-05-03T10:07:42.670Z,1.20
2023-05-03T10:10:03.836Z,1.90
2023-05-03T10:11:08.546Z,2.09
2023-05-03T10:12:12.542Z,1.20
2023-05-03T10:13:15.086Z,1.20
2023-05-03T10:14:18.063Z,2.40
2023-05-03T10:15:22.959Z,1.64
2023-05-03T10:16:34.971Z,0.70
2023-05-03T10:18:49.841Z,1.40
2023-05-03T10:20:05.088Z,3.40
2023-05-03T10:21:11.594Z,4.00
2023-05-03T10:22:13.927Z,3.70
2023-05-03T10:23:17.556Z,1.80
2023-05-03T10:24:20.125Z,1.60
2023-05-03T10:25:22.360Z,2.20
2023-05-03T10:26:24.658Z,2.70
2023-05-03T10:27:45.925Z,1.90
2023-05-03T10:28:48.200Z,2.90
2023-05-03T10:29:51.711Z,2.60
2023-05-03T10:30:54.253Z,1.90
2023-05-03T10:31:57.615Z,2.30
2023-05-03T10:33:13.416Z,1.90
2023-05-03T10:34:24.618Z,2.20
2023-05-03T10:35:28.821Z,1.10
2023-05-03T10:36:45.818Z,1.60
2023-05-03T10:37:36.629Z,2.20
2023-05-03T10:38:39.896Z,2.55
2023-05-03T10:39:44.939Z,2.70
2023-05-03T10:40:47.522Z,1.80
2023-05-03T10:42:03.350Z,1.90
2023-05-03T10:43:05.699Z,1.60
2023-05-03T10:44:28.326Z,2.80
2023-05-03T10:45:30.953Z,2.40
2023-05-03T10:46:34.137Z,2.36
2023-05-03T10:47:36.578Z,2.60
2023-05-03T10:48:38.942Z,2.70
2023-05-03T10:49:41.898Z,1.90
2023-05-03T10:50:44.292Z,2.09
2023-05-03T10:51:47.046Z,3.30
2023-05-03T10:52:49.487Z,2.00
2023-05-03T10:53:52.171Z,4.00
2023-05-03T10:54:54.477Z,3.10
2023-05-03T10:56:08.948Z,2.10
2023-05-03T10:57:12.551Z,2.30
2023-05-03T10:58:16.558Z,1.40
2023-05-03T10:59:19.782Z,2.20
2023-05-03T11:01:46.235Z,2.40
2023-05-03T11:03:01.102Z,2.50
2023-05-03T11:05:42.779Z,3.50
2023-05-03T11:06:46.851Z,1.60
2023-05-03T11:07:52.392Z,2.80
2023-05-03T11:08:55.913Z,1.40
2023-05-03T11:09:58.706Z,1.80
2023-05-03T11:11:02.020Z,1.91
2023-05-03T11:12:05.925Z,1.80
2023-05-03T11:13:08.809Z,2.20
2023-05-03T11:14:11.429Z,2.60
2023-05-03T11:15:13.803Z,2.30
2023-05-03T11:16:16.656Z,2.80
2023-05-03T11:17:19.536Z,2.36
2023-05-03T11:18:22.692Z,2.82
2023-05-03T11:19:25.485Z,3.30
2023-05-03T11:20:28.032Z,3.18
2023-05-03T11:21:30.872Z,2.50
2023-05-03T11:22:33.959Z,1.90
2023-05-03T11:23:38.456Z,2.18
2023-05-03T11:24:41.448Z,2.10
2023-05-03T11:25:44.140Z,3.00
2023-05-03T11:26:46.962Z,2.10
2023-05-03T11:27:49.848Z,2.10
2023-05-03T11:28:53.580Z,1.20
2023-05-03T11:29:56.015Z,1.80
2023-05-03T11:30:58.745Z,2.40
2023-05-03T11:32:01.136Z,1.20
2023-05-03T11:33:03.536Z,2.10
2023-05-03T11:34:05.933Z,2.20
2023-05-03T11:35:09.797Z,1.70
2023-05-03T11:36:12.194Z,3.00
2023-05-03T11:37:15.634Z,2.80
2023-05-03T11:38:17.983Z,3.20
2023-05-03T11:39:21.014Z,3.20
2023-05-03T11:40:23.755Z,2.80
2023-05-03T11:41:26.053Z,3.40
2023-05-03T11:42:30.742Z,2.80
2023-05-03T11:43:33.207Z,3.40
2023-05-03T11:44:35.640Z,2.30
2023-05-03T11:45:44.748Z,2.20
2023-05-03T11:46:48.354Z,2.00
2023-05-03T11:47:52.760Z,3.40
2023-05-03T11:48:55.802Z,2.80
2023-05-03T11:49:58.201Z,2.80
2023-05-03T11:51:04.181Z,2.40
2023-05-03T11:52:07.344Z,1.50
2023-05-03T11:53:10.912Z,3.00
2023-05-03T11:55:18.337Z,2.00
2023-05-03T11:56:20.648Z,1.60
2023-05-03T11:57:25.285Z,2.80
2023-05-03T11:58:27.884Z,3.70
2023-05-03T11:59:34.980Z,2.40
2023-05-03T12:00:38.610Z,2.70
2023-05-03T12:01:41.343Z,3.30
2023-05-03T12:02:46.429Z,3.00
2023-05-03T12:03:59.119Z,3.10
2023-05-03T12:05:04.530Z,3.40
2023-05-03T12:06:08.444Z,2.30
2023-05-03T12:07:14.187Z,2.70
2023-05-03T12:08:18.689Z,2.30
2023-05-03T12:09:26.111Z,3.40
2023-05-03T12:10:33.354Z,3.00
2023-05-03T12:11:43.932Z,2.20
2023-05-03T12:12:57.726Z,1.80
2023-05-03T12:14:02.552Z,2.30
2023-05-03T12:15:07.988Z,2.30
2023-05-03T12:16:14.332Z,2.10
2023-05-03T12:17:18.971Z,2.50
2023-05-03T12:18:21.329Z,3.70
2023-05-03T12:19:33.642Z,3.00
2023-05-03T12:22:58.809Z,9.70
2023-05-03T12:24:02.396Z,4.80
2023-05-03T12:25:05.944Z,3.70
2023-05-03T12:26:10.356Z,2.50
2023-05-03T12:27:14.459Z,3.27
2023-05-03T12:28:20.763Z,3.40
2023-05-03T12:29:23.834Z,3.50
2023-05-03T12:30:28.763Z,3.10
2023-05-03T12:31:34.412Z,3.30
2023-05-03T12:32:38.878Z,2.80
2023-05-03T12:33:43.242Z,2.80
2023-05-03T12:34:46.720Z,3.50
2023-05-03T12:35:52.618Z,2.40
2023-05-03T12:36:56.110Z,2.50
2023-05-03T12:39:01.508Z,2.90
2023-05-03T12:40:21.896Z,3.20
2023-05-03T12:41:09.149Z,2.80
2023-05-03T12:42:13.818Z,3.40
2023-05-03T12:43:16.055Z,3.10
2023-05-03T12:44:18.457Z,2.60
2023-05-03T12:45:21.858Z,3.30
2023-05-03T12:47:29.434Z,3.60
2023-05-03T12:48:33.048Z,2.36
2023-05-03T12:49:38.647Z,3.30
2023-05-03T12:50:44.830Z,3.20
2023-05-03T12:51:54.137Z,3.00
2023-05-03T12:52:52.740Z,2.70
2023-05-03T12:53:55.442Z,3.30
2023-05-03T12:55:00.489Z,1.30
2023-05-03T12:56:05.246Z,3.00
2023-05-03T12:57:09.212Z,3.70
2023-05-03T13:00:24.973Z,3.40
2023-05-03T13:03:34.471Z,2.00
2023-05-03T13:05:43.029Z,0.90
2023-05-03T13:06:46.753Z,3.20
2023-05-03T13:07:55.551Z,3.20
2023-05-03T13:08:57.129Z,3.30
2023-05-03T13:11:04.285Z,2.60
2023-05-03T13:12:06.912Z,3.30
2023-05-03T13:13:10.431Z,3.70
2023-05-03T13:14:14.817Z,2.70
2023-05-03T13:15:17.289Z,3.50
2023-05-03T13:16:19.656Z,3.30
2023-05-03T13:17:23.164Z,2.30
2023-05-03T13:18:25.869Z,4.40
2023-05-03T13:19:28.269Z,3.20
2023-05-03T13:20:31.173Z,2.70
2023-05-03T13:21:33.446Z,3.27
2023-05-03T13:22:35.762Z,2.00
2023-05-03T13:23:39.724Z,2.40
2023-05-03T13:24:45.483Z,2.90
2023-05-03T13:25:48.380Z,2.50
2023-05-03T13:26:50.646Z,2.00
2023-05-03T13:27:52.996Z,0.00
2023-05-03T13:28:55.497Z,2.10
2023-05-03T13:29:59.701Z,3.90
2023-05-03T13:31:02.145Z,3.40
2023-05-03T13:32:06.106Z,3.00
2023-05-03T13:33:09.150Z,1.70
2023-05-03T13:34:12.146Z,2.50
2023-05-03T13:35:15.516Z,3.36
2023-05-03T13:36:18.332Z,1.40
2023-05-03T13:37:20.884Z,2.50
2023-05-03T13:38:23.247Z,3.10
2023-05-03T13:39:25.667Z,2.50
2023-05-03T13:40:28.414Z,1.80
2023-05-03T13:41:31.312Z,1.36
2023-05-03T13:42:33.676Z,2.18
2023-05-03T13:43:35.934Z,2.30
2023-05-03T13:44:38.166Z,3.00
2023-05-03T13:45:40.974Z,3.80
2023-05-03T13:46:43.500Z,2.18
2023-05-03T13:48:49.962Z,2.80
2023-05-03T13:49:56.757Z,3.80
2023-05-03T13:50:59.199Z,1.30
2023-05-03T13:52:01.621Z,3.30
2023-05-03T13:53:03.932Z,2.90
2023-05-03T13:54:06.942Z,2.90
2023-05-03T13:55:09.801Z,2.50
2023-05-03T13:56:13.616Z,2.10
2023-05-03T13:57:15.949Z,3.00
2023-05-03T13:58:18.137Z,3.00
2023-05-03T13:59:20.385Z,3.90
2023-05-03T14:00:23.815Z,3.50
2023-05-03T14:01:27.724Z,4.00
2023-05-03T14:02:30.544Z,4.40
2023-05-03T14:03:32.979Z,2.80
2023-05-03T14:04:35.616Z,4.20
2023-05-03T14:05:40.115Z,5.00
2023-05-03T14:06:42.702Z,3.50
2023-05-03T14:07:45.675Z,5.10
2023-05-03T14:08:48.022Z,3.73
2023-05-03T14:09:50.255Z,3.70
2023-05-03T14:10:52.808Z,3.00
2023-05-03T14:11:57.360Z,3.50
2023-05-03T14:12:59.755Z,4.50
2023-05-03T14:14:03.419Z,4.10
2023-05-03T14:15:06.824Z,4.20
2023-05-03T14:16:27.647Z,3.80
2023-05-03T14:17:22.448Z,5.20
2023-05-03T14:18:24.951Z,3.09
2023-05-03T14:19:27.795Z,3.20
2023-05-03T14:20:31.289Z,4.70
2023-05-03T14:21:33.621Z,4.00
2023-05-03T14:22:36.349Z,5.00
2023-05-03T14:23:38.565Z,3.30
2023-05-03T14:24:40.882Z,2.70
2023-05-03T14:25:43.305Z,1.60
2023-05-03T14:26:46.003Z,2.80
2023-05-03T14:27:48.173Z,3.10
2023-05-03T14:28:51.432Z,3.40
2023-05-03T14:29:54.804Z,0.40
2023-05-03T14:30:57.852Z,3.40
2023-05-03T14:32:00.205Z,2.70
2023-05-03T14:33:04.549Z,4.50
2023-05-03T14:34:06.891Z,4.20
2023-05-03T14:35:09.936Z,5.70
2023-05-03T14:36:12.945Z,7.50
2023-05-03T14:37:16.320Z,8.09
2023-05-03T14:38:18.738Z,9.80
2023-05-03T14:39:20.943Z,6.50
2023-05-03T14:40:23.345Z,6.70